createdAt,value
2023-06-25T00:00:37.929Z,95641.00
2023-06-25T00:01:37.771Z,95639.00
2023-06-25T00:02:37.865Z,95636.00
2023-06-25T00:03:37.875Z,95636.00
2023-06-25T00:04:37.919Z,95634.00
2023-06-25T00:05:38.004Z,95630.00
2023-06-25T00:06:38.037Z,95630.00
2023-06-25T00:07:38.979Z,95632.00
2023-06-25T00:08:38.201Z,95634.00
2023-06-25T00:09:38.228Z,95632.00
2023-06-25T00:10:38.541Z,95632.00
2023-06-25T00:11:38.344Z,95634.00
2023-06-25T00:12:38.431Z,95634.00
2023-06-25T00:13:38.451Z,95634.00
2023-06-25T00:14:38.492Z,95630.00
2023-06-25T00:15:38.546Z,95634.00
2023-06-25T00:16:38.657Z,95634.00
2023-06-25T00:17:38.740Z,95634.00
2023-06-25T00:18:38.748Z,95634.00
2023-06-25T00:19:38.814Z,95636.00
2023-06-25T00:20:39.757Z,95632.00
2023-06-25T00:21:38.939Z,95632.00
2023-06-25T00:22:39.003Z,95636.00
2023-06-25T00:23:39.048Z,95632.00
2023-06-25T00:24:40.057Z,95632.00
2023-06-25T00:25:39.038Z,95632.00
2023-06-25T00:26:39.012Z,95632.00
2023-06-25T00:27:39.036Z,95630.00
2023-06-25T00:28:39.021Z,95630.00
2023-06-25T00:29:38.999Z,95630.00
2023-06-25T00:30:39.675Z,95630.00
2023-06-25T00:31:39.032Z,95628.00
2023-06-25T00:32:39.054Z,95630.00
2023-06-25T00:33:39.090Z,95628.00
2023-06-25T00:34:39.119Z,95630.00
2023-06-25T00:35:39.181Z,95628.00
2023-06-25T00:36:39.249Z,95630.00
2023-06-25T00:37:39.290Z,95628.00
2023-06-25T00:38:39.374Z,95630.00
2023-06-25T00:39:39.403Z,95628.00
2023-06-25T00:40:39.551Z,95628.00
2023-06-25T00:41:39.532Z,95628.00
2023-06-25T00:42:39.618Z,95628.00
2023-06-25T00:43:39.656Z,95626.00
2023-06-25T00:44:39.714Z,95626.00
2023-06-25T00:45:39.726Z,95626.00
2023-06-25T00:46:39.809Z,95628.00
2023-06-25T00:47:39.996Z,95628.00
2023-06-25T00:48:39.954Z,95628.00
2023-06-25T00:49:39.982Z,95624.00
2023-06-25T00:50:40.238Z,95626.00
2023-06-25T00:51:40.140Z,95628.00
2023-06-25T00:52:40.188Z,95626.00
2023-06-25T00:53:40.221Z,95626.00
2023-06-25T00:54:40.261Z,95624.00
2023-06-25T00:55:40.434Z,95626.00
2023-06-25T00:56:40.401Z,95624.00
2023-06-25T00:57:40.485Z,95620.00
2023-06-25T00:58:40.515Z,95620.00
2023-06-25T00:59:40.541Z,95620.00
2023-06-25T01:00:40.629Z,95620.00
2023-06-25T01:01:40.629Z,95620.00
2023-06-25T01:02:40.879Z,95618.00
2023-06-25T01:03:41.817Z,95616.00
2023-06-25T01:04:40.682Z,95616.00
2023-06-25T01:05:40.661Z,95616.00
2023-06-25T01:06:40.691Z,95616.00
2023-06-25T01:07:40.651Z,95614.00
2023-06-25T01:08:40.697Z,95614.00
2023-06-25T01:09:40.640Z,95616.00
2023-06-25T01:10:40.610Z,95614.00
2023-06-25T01:11:40.683Z,95616.00
2023-06-25T01:12:40.768Z,95616.00
2023-06-25T01:13:40.759Z,95616.00
2023-06-25T01:14:40.859Z,95616.00
2023-06-25T01:15:40.892Z,95616.00
2023-06-25T01:16:40.946Z,95614.00
2023-06-25T01:17:41.098Z,95616.00
2023-06-25T01:18:47.942Z,95614.00
2023-06-25T01:19:42.153Z,95616.00
2023-06-25T01:20:41.067Z,95610.00
2023-06-25T01:21:41.096Z,95614.00
2023-06-25T01:22:41.037Z,95612.00
2023-06-25T01:23:41.107Z,95610.00
2023-06-25T01:24:41.052Z,95610.00
2023-06-25T01:25:41.051Z,95612.00
2023-06-25T01:26:41.020Z,95608.00
2023-06-25T01:27:41.994Z,95608.00
2023-06-25T01:28:41.141Z,95606.00
2023-06-25T01:29:41.164Z,95608.00
2023-06-25T01:30:41.249Z,95608.00
2023-06-25T01:31:41.324Z,95604.00
2023-06-25T01:32:41.377Z,95606.00
2023-06-25T01:33:41.406Z,95606.00
2023-06-25T01:34:41.477Z,95606.00
2023-06-25T01:35:41.531Z,95602.00
2023-06-25T01:36:41.558Z,95602.00
2023-06-25T01:37:41.632Z,95600.00
2023-06-25T01:38:41.669Z,95604.00
2023-06-25T01:39:41.695Z,95598.00
2023-06-25T01:40:41.757Z,95598.00
2023-06-25T01:41:41.840Z,95596.00
2023-06-25T01:42:41.898Z,95594.00
2023-06-25T01:43:41.954Z,95594.00
2023-06-25T01:44:41.998Z,95596.00
2023-06-25T01:45:42.087Z,95596.00
2023-06-25T01:46:42.103Z,95598.00
2023-06-25T01:47:42.159Z,95596.00
2023-06-25T01:48:42.242Z,95598.00
2023-06-25T01:49:42.289Z,95596.00
2023-06-25T01:50:42.341Z,95596.00
2023-06-25T01:51:42.418Z,95594.00
2023-06-25T01:52:42.482Z,95596.00
2023-06-25T01:53:42.549Z,95594.00
2023-06-25T01:54:42.576Z,95594.00
2023-06-25T01:55:42.647Z,95594.00
2023-06-25T01:56:42.694Z,95589.00
2023-06-25T01:57:42.786Z,95591.00
2023-06-25T01:58:42.828Z,95591.00
2023-06-25T01:59:42.886Z,95591.00
2023-06-25T02:00:42.951Z,95591.00
2023-06-25T02:01:43.044Z,95589.00
2023-06-25T02:02:43.091Z,95587.00
2023-06-25T02:03:43.224Z,95589.00
2023-06-25T02:04:43.132Z,95587.00
2023-06-25T02:05:43.069Z,95585.00
2023-06-25T02:06:43.104Z,95587.00
2023-06-25T02:07:43.073Z,95583.00
2023-06-25T02:08:43.034Z,95583.00
2023-06-25T02:09:43.040Z,95585.00
2023-06-25T02:10:44.097Z,95583.00
2023-06-25T02:11:43.020Z,95585.00
2023-06-25T02:12:43.078Z,95583.00
2023-06-25T02:13:43.127Z,95585.00
2023-06-25T02:14:43.196Z,95587.00
2023-06-25T02:15:44.092Z,95585.00
2023-06-25T02:16:43.266Z,95581.00
2023-06-25T02:17:43.330Z,95581.00
2023-06-25T02:18:43.396Z,95581.00
2023-06-25T02:19:43.472Z,95577.00
2023-06-25T02:20:43.485Z,95577.00
2023-06-25T02:21:43.605Z,95575.00
2023-06-25T02:22:43.599Z,95575.00
2023-06-25T02:23:43.669Z,95575.00
2023-06-25T02:24:43.729Z,95571.00
2023-06-25T02:25:43.792Z,95575.00
2023-06-25T02:26:43.839Z,95573.00
2023-06-25T02:27:43.914Z,95569.00
2023-06-25T02:28:43.910Z,95573.00
2023-06-25T02:29:43.985Z,95569.00
2023-06-25T02:30:44.045Z,95569.00
2023-06-25T02:31:44.177Z,95569.00
2023-06-25T02:32:44.117Z,95567.00
2023-06-25T02:33:44.002Z,95567.00
2023-06-25T02:34:44.000Z,95565.00
2023-06-25T02:35:43.973Z,95565.00
2023-06-25T02:36:44.026Z,95567.00
2023-06-25T02:37:44.011Z,95567.00
2023-06-25T02:38:43.975Z,95569.00
2023-06-25T02:39:43.980Z,95567.00
2023-06-25T02:40:43.951Z,95571.00
2023-06-25T02:41:43.962Z,95571.00
2023-06-25T02:42:45.023Z,95567.00
2023-06-25T02:43:44.067Z,95569.00
2023-06-25T02:44:45.067Z,95569.00
2023-06-25T02:45:44.143Z,95569.00
2023-06-25T02:46:44.138Z,95571.00
2023-06-25T02:47:44.202Z,95569.00
2023-06-25T02:48:44.277Z,95569.00
2023-06-25T02:49:44.307Z,95569.00
2023-06-25T02:50:44.349Z,95569.00
2023-06-25T02:51:44.378Z,95569.00
2023-06-25T02:52:44.455Z,95567.00
2023-06-25T02:53:44.494Z,95569.00
2023-06-25T02:54:44.577Z,95567.00
2023-06-25T02:55:44.562Z,95565.00
2023-06-25T02:56:44.622Z,95563.00
2023-06-25T02:57:44.685Z,95561.00
2023-06-25T02:58:44.750Z,95559.00
2023-06-25T02:59:44.757Z,95559.00
2023-06-25T03:00:44.869Z,95559.00
2023-06-25T03:01:44.881Z,95561.00
2023-06-25T03:02:44.997Z,95561.00
2023-06-25T03:03:45.536Z,95559.00
2023-06-25T03:04:45.020Z,95561.00
2023-06-25T03:05:46.065Z,95561.00
2023-06-25T03:06:46.177Z,95563.00
2023-06-25T03:07:45.538Z,95563.00
2023-06-25T03:08:45.070Z,95563.00
2023-06-25T03:09:45.056Z,95565.00
2023-06-25T03:10:45.073Z,95565.00
2023-06-25T03:11:45.089Z,95565.00
2023-06-25T03:12:46.554Z,95565.00
2023-06-25T03:13:45.037Z,95563.00
2023-06-25T03:14:46.016Z,95567.00
2023-06-25T03:15:45.000Z,95567.00
2023-06-25T03:16:45.514Z,95565.00
2023-06-25T03:17:45.040Z,95565.00
2023-06-25T03:18:45.521Z,95565.00
2023-06-25T03:19:45.531Z,95569.00
2023-06-25T03:20:44.990Z,95567.00
2023-06-25T03:21:44.993Z,95567.00
2023-06-25T03:22:45.016Z,95565.00
2023-06-25T03:23:44.973Z,95565.00
2023-06-25T03:24:45.066Z,95565.00
2023-06-25T03:25:45.078Z,95569.00
2023-06-25T03:26:45.177Z,95569.00
2023-06-25T03:27:45.171Z,95567.00
2023-06-25T03:28:45.214Z,95567.00
2023-06-25T03:29:45.293Z,95567.00
2023-06-25T03:30:46.317Z,95567.00
2023-06-25T03:31:45.273Z,95565.00
2023-06-25T03:32:45.259Z,95569.00
2023-06-25T03:33:45.242Z,95569.00
2023-06-25T03:34:45.254Z,95565.00
2023-06-25T03:35:45.258Z,95567.00
2023-06-25T03:36:45.227Z,95565.00
2023-06-25T03:37:45.250Z,95565.00
2023-06-25T03:38:45.222Z,95565.00
2023-06-25T03:39:45.245Z,95565.00
2023-06-25T03:40:45.254Z,95567.00
2023-06-25T03:41:45.316Z,95565.00
2023-06-25T03:42:45.417Z,95565.00
2023-06-25T03:43:45.403Z,95565.00
2023-06-25T03:44:45.489Z,95567.00
2023-06-25T03:45:45.535Z,95569.00
2023-06-25T03:46:45.539Z,95569.00
2023-06-25T03:47:45.740Z,95569.00
2023-06-25T03:48:45.800Z,95573.00
2023-06-25T03:49:45.698Z,95573.00
2023-06-25T03:50:45.770Z,95573.00
2023-06-25T03:51:45.748Z,95575.00
2023-06-25T03:52:45.792Z,95575.00
2023-06-25T03:53:45.854Z,95575.00
2023-06-25T03:54:45.895Z,95573.00
2023-06-25T03:55:45.974Z,95569.00
2023-06-25T03:56:46.542Z,95569.00
2023-06-25T03:57:45.993Z,95567.00
2023-06-25T03:58:45.940Z,95567.00
2023-06-25T03:59:46.004Z,95567.00
2023-06-25T04:00:46.036Z,95565.00
2023-06-25T04:01:46.116Z,95565.00
2023-06-25T04:02:46.146Z,95563.00
2023-06-25T04:03:46.138Z,95563.00
2023-06-25T04:04:46.166Z,95565.00
2023-06-25T04:05:46.172Z,95565.00
2023-06-25T04:06:46.230Z,95563.00
2023-06-25T04:07:46.248Z,95563.00
2023-06-25T04:08:46.258Z,95561.00
2023-06-25T04:09:46.258Z,95559.00
2023-06-25T04:10:46.309Z,95561.00
2023-06-25T04:11:46.346Z,95561.00
2023-06-25T04:12:46.394Z,95565.00
2023-06-25T04:13:46.416Z,95565.00
2023-06-25T04:14:46.423Z,95565.00
2023-06-25T04:15:46.493Z,95571.00
2023-06-25T04:16:46.484Z,95569.00
2023-06-25T04:17:46.557Z,95569.00
2023-06-25T04:18:46.593Z,95565.00
2023-06-25T04:19:46.674Z,95565.00
2023-06-25T04:20:46.695Z,95565.00
2023-06-25T04:21:46.717Z,95565.00
2023-06-25T04:22:46.820Z,95565.00
2023-06-25T04:23:46.791Z,95567.00
2023-06-25T04:24:46.845Z,95569.00
2023-06-25T04:25:46.923Z,95565.00
2023-06-25T04:26:46.955Z,95565.00
2023-06-25T04:27:47.034Z,95567.00
2023-06-25T04:28:47.096Z,95563.00
2023-06-25T04:29:47.150Z,95563.00
2023-06-25T04:30:47.171Z,95561.00
2023-06-25T04:31:47.365Z,95561.00
2023-06-25T04:32:47.307Z,95561.00
2023-06-25T04:33:47.263Z,95561.00
2023-06-25T04:34:47.254Z,95561.00
2023-06-25T04:35:47.278Z,95559.00
2023-06-25T04:36:47.365Z,95559.00
2023-06-25T04:37:47.352Z,95559.00
2023-06-25T04:38:47.364Z,95561.00
2023-06-25T04:39:47.399Z,95559.00
2023-06-25T04:40:47.389Z,95555.00
2023-06-25T04:41:47.417Z,95555.00
2023-06-25T04:42:47.478Z,95555.00
2023-06-25T04:43:47.433Z,95553.00
2023-06-25T04:44:47.467Z,95551.00
2023-06-25T04:45:47.523Z,95551.00
2023-06-25T04:46:47.540Z,95549.00
2023-06-25T04:47:47.626Z,95553.00
2023-06-25T04:48:47.608Z,95551.00
2023-06-25T04:49:47.660Z,95551.00
2023-06-25T04:50:47.688Z,95551.00
2023-06-25T04:51:47.710Z,95553.00
2023-06-25T04:52:47.745Z,95553.00
2023-06-25T04:53:47.757Z,95553.00
2023-06-25T04:54:47.767Z,95551.00
2023-06-25T04:55:47.783Z,95553.00
2023-06-25T04:56:47.884Z,95549.00
2023-06-25T04:57:47.900Z,95551.00
2023-06-25T04:58:47.973Z,95553.00
2023-06-25T04:59:48.018Z,95551.00
2023-06-25T05:00:48.071Z,95551.00
2023-06-25T05:01:48.241Z,95551.00
2023-06-25T05:02:48.245Z,95551.00
2023-06-25T05:03:48.256Z,95551.00
2023-06-25T05:04:48.301Z,95551.00
2023-06-25T05:05:48.330Z,95551.00
2023-06-25T05:06:48.398Z,95553.00
2023-06-25T05:07:48.370Z,95551.00
2023-06-25T05:08:48.408Z,95551.00
2023-06-25T05:09:48.462Z,95555.00
2023-06-25T05:10:48.501Z,95553.00
2023-06-25T05:11:48.560Z,95555.00
2023-06-25T05:12:48.645Z,95553.00
2023-06-25T05:13:48.673Z,95553.00
2023-06-25T05:14:48.751Z,95555.00
2023-06-25T05:15:48.817Z,95555.00
2023-06-25T05:16:48.854Z,95557.00
2023-06-25T05:17:48.973Z,95557.00
2023-06-25T05:18:50.647Z,95557.00
2023-06-25T05:19:48.979Z,95555.00
2023-06-25T05:20:48.987Z,95553.00
2023-06-25T05:21:49.004Z,95555.00
2023-06-25T05:22:48.963Z,95553.00
2023-06-25T05:23:48.951Z,95555.00
2023-06-25T05:24:48.954Z,95557.00
2023-06-25T05:25:48.968Z,95559.00
2023-06-25T05:26:48.934Z,95559.00
2023-06-25T05:27:48.948Z,95561.00
2023-06-25T05:28:48.935Z,95561.00
2023-06-25T05:29:48.938Z,95561.00
2023-06-25T05:30:48.955Z,95561.00
2023-06-25T05:31:48.951Z,95559.00
2023-06-25T05:32:48.976Z,95559.00
2023-06-25T05:33:48.917Z,95559.00
2023-06-25T05:34:48.892Z,95557.00
2023-06-25T05:35:48.907Z,95557.00
2023-06-25T05:36:48.864Z,95557.00
2023-06-25T05:37:48.884Z,95557.00
2023-06-25T05:38:51.382Z,95555.00
2023-06-25T05:39:48.833Z,95553.00
2023-06-25T05:40:48.886Z,95547.00
2023-06-25T05:41:48.840Z,95547.00
2023-06-25T05:42:48.839Z,95545.00
2023-06-25T05:43:48.851Z,95545.00
2023-06-25T05:44:48.822Z,95543.00
2023-06-25T05:45:48.802Z,95543.00
2023-06-25T05:46:48.976Z,95543.00
2023-06-25T05:47:48.969Z,95540.00
2023-06-25T05:48:48.821Z,95538.00
2023-06-25T05:49:48.794Z,95540.00
2023-06-25T05:50:48.755Z,95540.00
2023-06-25T05:51:48.790Z,95540.00
2023-06-25T05:52:48.797Z,95538.00
2023-06-25T05:53:48.743Z,95540.00
2023-06-25T05:54:48.777Z,95540.00
2023-06-25T05:55:48.768Z,95540.00
2023-06-25T05:56:48.729Z,95538.00
2023-06-25T05:57:48.780Z,95538.00
2023-06-25T05:58:48.751Z,95534.00
2023-06-25T05:59:48.733Z,95536.00
2023-06-25T06:00:48.737Z,95540.00
2023-06-25T06:01:48.708Z,95541.00
2023-06-25T06:02:48.748Z,95540.00
2023-06-25T06:03:48.752Z,95534.00
2023-06-25T06:04:48.675Z,95538.00
2023-06-25T06:05:48.651Z,95536.00
2023-06-25T06:06:48.697Z,95538.00
2023-06-25T06:07:48.692Z,95536.00
2023-06-25T06:08:48.686Z,95538.00
2023-06-25T06:09:48.675Z,95532.00
2023-06-25T06:10:48.689Z,95532.00
2023-06-25T06:11:48.636Z,95528.00
2023-06-25T06:12:48.661Z,95528.00
2023-06-25T06:13:48.636Z,95528.00
2023-06-25T06:14:48.676Z,95522.00
2023-06-25T06:15:48.613Z,95524.00
2023-06-25T06:16:48.601Z,95522.00
2023-06-25T06:17:48.666Z,95520.00
2023-06-25T06:18:48.581Z,95520.00
2023-06-25T06:19:48.586Z,95518.00
2023-06-25T06:20:48.641Z,95516.00
2023-06-25T06:21:48.684Z,95516.00
2023-06-25T06:22:48.717Z,95514.00
2023-06-25T06:23:48.733Z,95508.00
2023-06-25T06:24:48.817Z,95508.00
2023-06-25T06:25:48.888Z,95504.00
2023-06-25T06:26:48.860Z,95504.00
2023-06-25T06:27:48.911Z,95506.00
2023-06-25T06:28:49.025Z,95504.00
2023-06-25T06:29:49.053Z,95502.00
2023-06-25T06:30:49.158Z,95502.00
2023-06-25T06:31:49.175Z,95504.00
2023-06-25T06:32:49.250Z,95502.00
2023-06-25T06:33:49.245Z,95498.00
2023-06-25T06:34:49.334Z,95498.00
2023-06-25T06:35:49.359Z,95496.00
2023-06-25T06:36:49.407Z,95498.00
2023-06-25T06:37:49.456Z,95494.00
2023-06-25T06:38:49.516Z,95496.00
2023-06-25T06:39:49.563Z,95494.00
2023-06-25T06:40:49.603Z,95492.00
2023-06-25T06:41:49.648Z,95489.00
2023-06-25T06:42:49.687Z,95492.00
2023-06-25T06:43:49.721Z,95490.00
2023-06-25T06:44:49.771Z,95489.00
2023-06-25T06:45:49.851Z,95489.00
2023-06-25T06:46:49.882Z,95485.00
2023-06-25T06:47:49.943Z,95487.00
2023-06-25T06:48:49.967Z,95487.00
2023-06-25T06:49:50.020Z,95481.00
2023-06-25T06:50:50.045Z,95485.00
2023-06-25T06:51:50.123Z,95483.00
2023-06-25T06:52:50.657Z,95479.00
2023-06-25T06:53:50.211Z,95477.00
2023-06-25T06:54:50.236Z,95477.00
2023-06-25T06:55:50.302Z,95475.00
2023-06-25T06:56:50.376Z,95477.00
2023-06-25T06:57:50.684Z,95477.00
2023-06-25T06:58:50.465Z,95475.00
2023-06-25T06:59:50.484Z,95471.00
2023-06-25T07:00:50.546Z,95471.00
2023-06-25T07:01:50.664Z,95469.00
2023-06-25T07:02:50.728Z,95469.00
2023-06-25T07:03:50.648Z,95467.00
2023-06-25T07:04:50.694Z,95467.00
2023-06-25T07:05:50.798Z,95465.00
2023-06-25T07:06:50.825Z,95463.00
2023-06-25T07:07:51.136Z,95461.00
2023-06-25T07:08:50.863Z,95463.00
2023-06-25T07:09:50.930Z,95459.00
2023-06-25T07:10:50.925Z,95461.00
2023-06-25T07:11:50.944Z,95457.00
2023-06-25T07:12:51.043Z,95455.00
2023-06-25T07:13:51.104Z,95453.00
2023-06-25T07:14:51.109Z,95451.00
2023-06-25T07:15:51.129Z,95453.00
2023-06-25T07:16:51.155Z,95451.00
2023-06-25T07:17:51.254Z,95453.00
2023-06-25T07:18:51.242Z,95449.00
2023-06-25T07:19:51.300Z,95447.00
2023-06-25T07:20:51.308Z,95447.00
2023-06-25T07:21:51.330Z,95449.00
2023-06-25T07:22:51.362Z,95451.00
2023-06-25T07:23:51.408Z,95447.00
2023-06-25T07:24:51.457Z,95447.00
2023-06-25T07:25:51.494Z,95443.00
2023-06-25T07:26:51.545Z,95442.00
2023-06-25T07:27:51.600Z,95442.00
2023-06-25T07:28:51.591Z,95440.00
2023-06-25T07:29:51.635Z,95438.00
2023-06-25T07:30:51.694Z,95438.00
2023-06-25T07:31:51.739Z,95436.00
2023-06-25T07:32:51.834Z,95432.00
2023-06-25T07:33:51.777Z,95430.00
2023-06-25T07:34:51.812Z,95432.00
2023-06-25T07:35:51.800Z,95422.00
2023-06-25T07:36:51.913Z,95424.00
2023-06-25T07:37:51.886Z,95422.00
2023-06-25T07:38:52.006Z,95420.00
2023-06-25T07:39:51.968Z,95416.00
2023-06-25T07:40:51.974Z,95414.00
2023-06-25T07:41:52.062Z,95412.00
2023-06-25T07:42:52.068Z,95410.00
2023-06-25T07:43:52.160Z,95408.00
2023-06-25T07:44:57.135Z,95410.00
2023-06-25T07:45:53.157Z,95408.00
2023-06-25T07:46:52.094Z,95404.00
2023-06-25T07:47:52.225Z,95396.00
2023-06-25T07:48:52.141Z,95396.00
2023-06-25T07:49:52.125Z,95392.00
2023-06-25T07:50:52.080Z,95394.00
2023-06-25T07:51:52.132Z,95392.00
2023-06-25T07:52:52.093Z,95390.00
2023-06-25T07:53:52.107Z,95389.00
2023-06-25T07:54:52.081Z,95387.00
2023-06-25T07:56:02.026Z,95387.00
2023-06-25T07:56:53.047Z,95389.00
2023-06-25T07:57:52.078Z,95381.00
2023-06-25T07:58:52.041Z,95383.00
2023-06-25T07:59:53.760Z,95381.00
2023-06-25T08:00:52.066Z,95381.00
2023-06-25T08:01:52.030Z,95379.00
2023-06-25T08:02:52.119Z,95377.00
2023-06-25T08:03:52.173Z,95377.00
2023-06-25T08:04:52.239Z,95377.00
2023-06-25T08:05:52.104Z,95373.00
2023-06-25T08:06:52.155Z,95373.00
2023-06-25T08:07:52.133Z,95371.00
2023-06-25T08:08:52.156Z,95365.00
2023-06-25T08:09:56.305Z,95367.00
2023-06-25T08:10:53.294Z,95369.00
2023-06-25T08:11:52.163Z,95361.00
2023-06-25T08:12:52.170Z,95361.00
2023-06-25T08:13:52.180Z,95359.00
2023-06-25T08:14:52.177Z,95359.00
2023-06-25T08:15:52.171Z,95357.00
2023-06-25T08:16:52.140Z,95357.00
2023-06-25T08:17:52.184Z,95361.00
2023-06-25T08:18:52.116Z,95351.00
2023-06-25T08:19:52.145Z,95359.00
2023-06-25T08:20:52.125Z,95357.00
2023-06-25T08:21:52.129Z,95359.00
2023-06-25T08:22:52.116Z,95357.00
2023-06-25T08:23:52.202Z,95355.00
2023-06-25T08:24:52.125Z,95355.00
2023-06-25T08:25:52.079Z,95359.00
2023-06-25T08:26:52.125Z,95359.00
2023-06-25T08:27:52.102Z,95355.00
2023-06-25T08:28:52.106Z,95355.00
2023-06-25T08:29:52.123Z,95355.00
2023-06-25T08:30:52.132Z,95357.00
2023-06-25T08:31:54.139Z,95357.00
2023-06-25T08:32:52.189Z,95355.00
2023-06-25T08:33:52.168Z,95357.00
2023-06-25T08:34:52.164Z,95355.00
2023-06-25T08:35:52.195Z,95355.00
2023-06-25T08:36:52.225Z,95353.00
2023-06-25T08:37:52.233Z,95353.00
2023-06-25T08:38:52.227Z,95351.00
2023-06-25T08:39:52.261Z,95349.00
2023-06-25T08:40:52.287Z,95345.00
2023-06-25T08:41:52.284Z,95345.00
2023-06-25T08:42:52.333Z,95343.00
2023-06-25T08:43:52.327Z,95342.00
2023-06-25T08:44:52.390Z,95342.00
2023-06-25T08:45:52.403Z,95342.00
2023-06-25T08:46:52.425Z,95340.00
2023-06-25T08:47:54.318Z,95338.00
2023-06-25T08:48:52.392Z,95340.00
2023-06-25T08:49:52.431Z,95340.00
2023-06-25T08:50:52.382Z,95336.00
2023-06-25T08:51:52.398Z,95338.00
2023-06-25T08:52:52.371Z,95336.00
2023-06-25T08:53:52.393Z,95334.00
2023-06-25T08:54:52.339Z,95334.00
2023-06-25T08:55:52.359Z,95332.00
2023-06-25T08:56:52.372Z,95330.00
2023-06-25T08:57:52.336Z,95334.00
2023-06-25T08:58:52.411Z,95330.00
2023-06-25T08:59:52.321Z,95330.00
2023-06-25T09:00:52.351Z,95334.00
2023-06-25T09:01:52.354Z,95334.00
2023-06-25T09:02:52.448Z,95334.00
2023-06-25T09:03:52.314Z,95334.00
2023-06-25T09:04:52.280Z,95332.00
2023-06-25T09:05:52.287Z,95332.00
2023-06-25T09:07:03.994Z,95330.00
2023-06-25T09:07:53.450Z,95332.00
2023-06-25T09:08:52.308Z,95332.00
2023-06-25T09:09:52.276Z,95328.00
2023-06-25T09:10:52.269Z,95326.00
2023-06-25T09:11:52.232Z,95328.00
2023-06-25T09:12:52.238Z,95324.00
2023-06-25T09:13:52.272Z,95324.00
2023-06-25T09:14:52.263Z,95320.00
2023-06-25T09:15:52.245Z,95322.00
2023-06-25T09:16:52.227Z,95320.00
2023-06-25T09:17:52.260Z,95314.00
2023-06-25T09:18:52.226Z,95314.00
2023-06-25T09:19:52.201Z,95314.00
2023-06-25T09:20:55.544Z,95310.00
2023-06-25T09:21:52.176Z,95308.00
2023-06-25T09:22:52.169Z,95306.00
2023-06-25T09:23:52.239Z,95308.00
2023-06-25T09:24:52.188Z,95304.00
2023-06-25T09:25:52.173Z,95300.00
2023-06-25T09:26:52.172Z,95298.00
2023-06-25T09:27:52.151Z,95295.00
2023-06-25T09:28:52.163Z,95293.00
2023-06-25T09:29:52.148Z,95293.00
2023-06-25T09:30:52.208Z,95289.00
2023-06-25T09:31:52.178Z,95289.00
2023-06-25T09:32:52.142Z,95289.00
2023-06-25T09:33:52.150Z,95287.00
2023-06-25T09:34:52.098Z,95285.00
2023-06-25T09:35:52.083Z,95283.00
2023-06-25T09:36:52.081Z,95285.00
2023-06-25T09:37:52.096Z,95283.00
2023-06-25T09:38:52.079Z,95283.00
2023-06-25T09:39:52.047Z,95281.00
2023-06-25T09:40:52.135Z,95281.00
2023-06-25T09:41:52.027Z,95279.00
2023-06-25T09:42:52.084Z,95281.00
2023-06-25T09:43:52.056Z,95279.00
2023-06-25T09:44:52.064Z,95277.00
2023-06-25T09:45:52.075Z,95277.00
2023-06-25T09:46:52.003Z,95277.00
2023-06-25T09:47:52.042Z,95277.00
2023-06-25T09:48:51.983Z,95273.00
2023-06-25T09:49:51.979Z,95271.00
2023-06-25T09:50:51.996Z,95275.00
2023-06-25T09:51:51.990Z,95271.00
2023-06-25T09:52:53.152Z,95269.00
2023-06-25T09:53:51.961Z,95267.00
2023-06-25T09:54:51.968Z,95267.00
2023-06-25T09:55:51.978Z,95265.00
2023-06-25T09:56:51.941Z,95263.00
2023-06-25T09:57:51.945Z,95265.00
2023-06-25T09:58:51.935Z,95261.00
2023-06-25T09:59:51.921Z,95263.00
2023-06-25T10:00:51.928Z,95259.00
2023-06-25T10:01:52.020Z,95257.00
2023-06-25T10:02:52.050Z,95255.00
2023-06-25T10:03:52.133Z,95255.00
2023-06-25T10:04:51.932Z,95251.00
2023-06-25T10:05:51.896Z,95251.00
2023-06-25T10:06:51.920Z,95253.00
2023-06-25T10:07:51.918Z,95247.00
2023-06-25T10:08:51.869Z,95245.00
2023-06-25T10:09:51.864Z,95249.00
2023-06-25T10:10:51.890Z,95244.00
2023-06-25T10:11:51.850Z,95245.00
2023-06-25T10:12:51.857Z,95240.00
2023-06-25T10:13:51.824Z,95245.00
2023-06-25T10:14:51.937Z,95240.00
2023-06-25T10:15:51.826Z,95245.00
2023-06-25T10:16:51.847Z,95240.00
2023-06-25T10:17:51.920Z,95245.00
2023-06-25T10:18:52.231Z,95244.00
2023-06-25T10:19:51.795Z,95242.00
2023-06-25T10:20:51.790Z,95242.00
2023-06-25T10:21:51.801Z,95236.00
2023-06-25T10:22:51.763Z,95234.00
2023-06-25T10:23:52.244Z,95230.00
2023-06-25T10:24:51.747Z,95232.00
2023-06-25T10:25:51.772Z,95228.00
2023-06-25T10:26:51.737Z,95226.00
2023-06-25T10:27:51.733Z,95224.00
2023-06-25T10:28:51.727Z,95224.00
2023-06-25T10:29:51.703Z,95220.00
2023-06-25T10:30:51.743Z,95218.00
2023-06-25T10:31:51.729Z,95218.00
2023-06-25T10:32:51.768Z,95216.00
2023-06-25T10:33:51.700Z,95214.00
2023-06-25T10:34:51.667Z,95216.00
2023-06-25T10:35:51.677Z,95216.00
2023-06-25T10:36:51.654Z,95214.00
2023-06-25T10:37:51.673Z,95212.00
2023-06-25T10:38:51.686Z,95208.00
2023-06-25T10:39:51.628Z,95208.00
2023-06-25T10:40:51.653Z,95208.00
2023-06-25T10:41:51.647Z,95208.00
2023-06-25T10:42:51.632Z,95208.00
2023-06-25T10:43:51.610Z,95206.00
2023-06-25T10:44:51.629Z,95206.00
2023-06-25T10:45:51.632Z,95204.00
2023-06-25T10:46:51.611Z,95202.00
2023-06-25T10:47:51.647Z,95204.00
2023-06-25T10:48:51.592Z,95206.00
2023-06-25T10:49:51.582Z,95206.00
2023-06-25T10:50:51.610Z,95202.00
2023-06-25T10:51:51.551Z,95204.00
2023-06-25T10:52:51.563Z,95204.00
2023-06-25T10:53:51.567Z,95204.00
2023-06-25T10:54:51.585Z,95198.00
2023-06-25T10:55:51.595Z,95196.00
2023-06-25T10:56:51.546Z,95191.00
2023-06-25T10:57:51.600Z,95191.00
2023-06-25T10:58:51.626Z,95191.00
2023-06-25T10:59:51.616Z,95191.00
2023-06-25T11:00:51.676Z,95189.00
2023-06-25T11:01:51.659Z,95187.00
2023-06-25T11:02:51.776Z,95185.00
2023-06-25T11:03:51.725Z,95185.00
2023-06-25T11:04:51.677Z,95183.00
2023-06-25T11:05:51.682Z,95183.00
2023-06-25T11:06:51.731Z,95179.00
2023-06-25T11:07:51.724Z,95183.00
2023-06-25T11:08:51.738Z,95179.00
2023-06-25T11:09:51.775Z,95177.00
2023-06-25T11:10:51.805Z,95179.00
2023-06-25T11:11:51.775Z,95177.00
2023-06-25T11:12:51.819Z,95177.00
2023-06-25T11:13:51.815Z,95173.00
2023-06-25T11:14:51.813Z,95171.00
2023-06-25T11:15:51.833Z,95171.00
2023-06-25T11:16:51.841Z,95169.00
2023-06-25T11:17:51.939Z,95169.00
2023-06-25T11:18:51.916Z,95169.00
2023-06-25T11:19:51.923Z,95165.00
2023-06-25T11:20:51.901Z,95163.00
2023-06-25T11:21:51.903Z,95161.00
2023-06-25T11:22:51.964Z,95161.00
2023-06-25T11:23:51.955Z,95159.00
2023-06-25T11:24:52.042Z,95161.00
2023-06-25T11:25:51.978Z,95157.00
2023-06-25T11:26:51.984Z,95157.00
2023-06-25T11:27:51.985Z,95157.00
2023-06-25T11:28:52.263Z,95155.00
2023-06-25T11:29:51.981Z,95151.00
2023-06-25T11:30:52.081Z,95151.00
2023-06-25T11:31:52.038Z,95147.00
2023-06-25T11:32:52.150Z,95140.00
2023-06-25T11:33:52.271Z,95147.00
2023-06-25T11:34:52.067Z,95138.00
2023-06-25T11:35:52.340Z,95138.00
2023-06-25T11:36:52.125Z,95136.00
2023-06-25T11:37:52.143Z,95138.00
2023-06-25T11:38:52.282Z,95136.00
2023-06-25T11:39:52.126Z,95134.00
2023-06-25T11:40:52.140Z,95134.00
2023-06-25T11:41:52.209Z,95130.00
2023-06-25T11:42:52.185Z,95130.00
2023-06-25T11:43:52.242Z,95130.00
2023-06-25T11:44:52.249Z,95130.00